createdAt,value
2022-12-05T00:05:00.878Z,101615.47
2022-12-05T00:10:22.852Z,101618.66
2022-12-05T00:15:44.467Z,101608.91
2022-12-05T00:21:07.617Z,101619.34
2022-12-05T00:26:31.210Z,101615.97
2022-12-05T00:31:52.914Z,101623.88
2022-12-05T00:37:14.645Z,101624.31
2022-12-05T00:42:36.362Z,101616.44
2022-12-05T00:47:58.095Z,101618.59
2022-12-05T00:53:19.909Z,101613.53
2022-12-05T00:58:42.597Z,101623.09
2022-12-05T01:04:23.409Z,101629.50
2022-12-05T01:09:45.073Z,101631.00
2022-12-05T01:15:07.580Z,101627.63
2022-12-05T01:20:29.263Z,101632.50
2022-12-05T01:25:52.576Z,101629.16
2022-12-05T01:31:21.636Z,101642.13
2022-12-05T01:36:43.742Z,101651.94
2022-12-05T01:42:06.278Z,101645.56
2022-12-05T01:47:31.527Z,101657.69
2022-12-05T01:52:53.263Z,101653.47
2022-12-05T01:58:16.406Z,101651.75
2022-12-05T02:03:38.521Z,101658.59
2022-12-05T02:09:00.460Z,101661.56
2022-12-05T02:14:24.861Z,101659.03
2022-12-05T02:19:58.969Z,101659.03
2022-12-05T02:25:26.612Z,101657.72
2022-12-05T02:31:23.689Z,101646.91
2022-12-05T02:37:04.167Z,101648.81
2022-12-05T02:42:35.900Z,101649.03
2022-12-05T02:47:59.953Z,101647.56
2022-12-05T02:53:24.135Z,101647.56
2022-12-05T02:58:51.305Z,101651.59
2022-12-05T03:04:15.253Z,101638.00
2022-12-05T03:09:42.771Z,101647.59
2022-12-05T03:15:07.816Z,101641.19
2022-12-05T03:20:35.002Z,101644.44
2022-12-05T03:26:17.897Z,101646.09
2022-12-05T03:32:08.981Z,101633.81
2022-12-05T03:37:41.817Z,101641.22
2022-12-05T03:43:25.397Z,101640.41
2022-12-05T03:48:55.968Z,101648.06
2022-12-05T03:54:23.905Z,101648.50
2022-12-05T03:59:53.759Z,101644.03
2022-12-05T04:05:26.646Z,101646.78
2022-12-05T04:10:51.467Z,101650.03
2022-12-05T04:16:38.354Z,101651.09
2022-12-05T04:22:00.054Z,101650.44
2022-12-05T04:27:33.929Z,101649.81
2022-12-05T04:33:00.601Z,101654.50
2022-12-05T04:38:32.005Z,101655.34
2022-12-05T04:43:55.943Z,101655.78
2022-12-05T04:49:25.307Z,101657.47
2022-12-05T04:54:49.408Z,101667.91
2022-12-05T05:00:11.558Z,101668.13
2022-12-05T05:05:36.057Z,101668.34
2022-12-05T05:11:16.493Z,101671.94
2022-12-05T05:16:40.650Z,101677.72
2022-12-05T05:22:02.409Z,101690.91
2022-12-05T05:27:24.070Z,101684.72
2022-12-05T05:32:45.929Z,101688.56
2022-12-05T05:38:07.601Z,101697.91
2022-12-05T05:43:29.374Z,101694.31
2022-12-05T05:48:51.798Z,101697.91
2022-12-05T05:54:13.524Z,101700.03
2022-12-05T05:59:35.278Z,101693.69
2022-12-05T06:04:57.011Z,101706.63
2022-12-05T06:10:19.050Z,101708.56
2022-12-05T06:15:41.025Z,101704.09
2022-12-05T06:21:04.189Z,101714.94
2022-12-05T06:26:26.060Z,101708.56
2022-12-05T06:31:47.913Z,101713.25
2022-12-05T06:37:09.703Z,101715.16
2022-12-05T06:42:31.993Z,101719.63
2022-12-05T06:47:54.020Z,101716.03
2022-12-05T06:53:15.743Z,101722.63
2022-12-05T06:58:37.598Z,101731.97
2022-12-05T07:03:59.735Z,101736.00
2022-12-05T07:09:44.536Z,101736.22
2022-12-05T07:15:06.588Z,101734.75
2022-12-05T07:20:43.171Z,101738.56
2022-12-05T07:26:13.237Z,101749.81
2022-12-05T07:31:36.769Z,101759.19
2022-12-05T07:36:58.564Z,101770.44
2022-12-05T07:42:20.596Z,101775.13
2022-12-05T07:47:42.338Z,101767.91
2022-12-05T07:53:04.265Z,101763.44
2022-12-05T07:58:26.415Z,101777.91
2022-12-05T08:03:48.676Z,101781.72
2022-12-05T08:09:10.507Z,101781.72
2022-12-05T08:14:32.264Z,101784.69
2022-12-05T08:19:54.004Z,101796.59
2022-12-05T08:25:15.817Z,101804.91
2022-12-05T08:30:37.621Z,101807.66
2022-12-05T08:36:04.444Z,101813.19
2022-12-05T08:41:29.131Z,101812.31
2022-12-05T08:46:50.871Z,101819.13
2022-12-05T08:52:12.547Z,101830.19
2022-12-05T08:57:34.289Z,101828.47
2022-12-05T09:02:56.023Z,101832.31
2022-12-05T09:08:17.792Z,101834.41
2022-12-05T09:13:40.221Z,101839.13
2022-12-05T09:19:02.038Z,101844.63
2022-12-05T09:24:24.259Z,101853.75
2022-12-05T09:29:45.968Z,101857.81
2022-12-05T09:35:08.253Z,101856.97
2022-12-05T09:40:30.796Z,101855.25
2022-12-05T09:46:02.289Z,101866.31
2022-12-05T09:51:25.904Z,101866.50
2022-12-05T09:56:50.129Z,101868.44
2022-12-05T10:02:31.337Z,101862.91
2022-12-05T10:08:10.546Z,101865.66
2022-12-05T10:13:47.559Z,101866.91
2022-12-05T10:19:24.149Z,101857.75
2022-12-05T10:24:52.236Z,101858.81
2022-12-05T10:30:22.178Z,101871.56
2022-12-05T10:35:44.133Z,101863.72
2022-12-05T10:41:11.996Z,101869.25
2022-12-05T10:46:33.863Z,101873.06
2022-12-05T10:51:55.590Z,101866.50
2022-12-05T10:57:30.239Z,101866.28
2022-12-05T11:02:52.120Z,101863.91
2022-12-05T11:08:41.741Z,101872.03
2022-12-05T11:14:30.031Z,101867.56
2022-12-05T11:19:51.700Z,101868.81
2022-12-05T11:25:30.753Z,101860.31
2022-12-05T11:31:19.849Z,101867.75
2022-12-05T11:36:46.968Z,101861.56
2022-12-05T11:42:43.431Z,101861.56
2022-12-05T11:48:33.848Z,101855.22
2022-12-05T11:54:30.399Z,101849.03
2022-12-05T12:00:19.611Z,101854.56
2022-12-05T12:05:59.287Z,101858.19
2022-12-05T12:11:38.396Z,101862.84
2022-12-05T12:17:29.288Z,101867.72
2022-12-05T12:23:28.527Z,101867.53
2022-12-05T12:29:01.997Z,101862.19
2022-12-05T12:34:38.131Z,101856.69
2022-12-05T12:40:18.747Z,101853.91
2022-12-05T12:46:06.715Z,101856.69
2022-12-05T12:51:33.753Z,101846.91
2022-12-05T12:57:14.531Z,101839.28
2022-12-05T13:03:12.181Z,101840.09
2022-12-05T13:08:45.483Z,101832.25
2022-12-05T13:14:14.464Z,101831.38
2022-12-05T13:19:44.083Z,101827.16
2022-12-05T13:25:06.281Z,101839.03
2022-12-05T13:30:28.545Z,101837.31
2022-12-05T13:36:12.885Z,101843.06
2022-12-05T13:42:01.730Z,101841.38
2022-12-05T13:47:29.044Z,101846.06
2022-12-05T13:52:55.580Z,101846.25
2022-12-05T13:58:17.244Z,101850.06
2022-12-05T14:03:38.834Z,101854.75
2022-12-05T14:09:00.980Z,101859.41
2022-12-05T14:14:56.952Z,101864.94
2022-12-05T14:20:49.715Z,101857.69
2022-12-05T14:26:32.986Z,101857.09
2022-12-05T14:32:24.035Z,101855.38
2022-12-05T14:37:50.110Z,101858.34
2022-12-05T14:43:23.377Z,101863.66
2022-12-05T14:48:48.317Z,101864.06
2022-12-05T14:54:18.964Z,101867.47
2022-12-05T14:59:51.896Z,101870.44
2022-12-05T15:05:32.171Z,101875.94
2022-12-05T15:10:54.217Z,101882.75
2022-12-05T15:16:19.801Z,101881.91
2022-12-05T15:21:53.000Z,101878.94
2022-12-05T15:27:16.808Z,101870.88
2022-12-05T15:32:38.508Z,101882.75
2022-12-05T15:38:13.786Z,101885.09
2022-12-05T15:43:37.496Z,101889.97
2022-12-05T15:49:01.354Z,101881.69
2022-12-05T15:54:30.846Z,101899.75
2022-12-05T16:00:04.487Z,101898.03
2022-12-05T16:05:35.555Z,101901.03
2022-12-05T16:10:57.413Z,101901.03
2022-12-05T16:16:38.848Z,101904.44
2022-12-05T16:22:20.820Z,101895.50
2022-12-05T16:27:44.279Z,101905.91
2022-12-05T16:33:16.501Z,101914.19
2022-12-05T16:38:41.011Z,101900.19
2022-12-05T16:44:10.784Z,101909.16
2022-12-05T16:49:44.281Z,101909.31
2022-12-05T16:55:11.523Z,101892.22
2022-12-05T17:00:33.401Z,101892.19
2022-12-05T17:05:56.192Z,101890.75
2022-12-05T17:11:22.258Z,101882.41
2022-12-05T17:16:44.476Z,101891.34
2022-12-05T17:22:06.722Z,101904.19
2022-12-05T17:27:28.491Z,101907.28
2022-12-05T17:32:50.131Z,101906.13
2022-12-05T17:38:12.047Z,101912.25
2022-12-05T17:43:34.380Z,101923.84
2022-12-05T17:48:56.056Z,101912.44
2022-12-05T17:54:17.731Z,101915.00
2022-12-05T17:59:39.421Z,101917.78
2022-12-05T18:05:01.167Z,101930.56
2022-12-05T18:10:23.852Z,101919.38
2022-12-05T18:15:48.272Z,101918.94
2022-12-05T18:21:12.398Z,101924.19
2022-12-05T18:26:34.143Z,101933.22
2022-12-05T18:31:56.032Z,101932.47
2022-12-05T18:37:18.567Z,101939.88
2022-12-05T18:42:40.425Z,101929.81
2022-12-05T18:48:23.484Z,101951.09
2022-12-05T18:53:51.926Z,101948.56
2022-12-05T18:59:16.487Z,101952.50
2022-12-05T19:04:38.191Z,101955.47
2022-12-05T19:09:59.842Z,101955.47
2022-12-05T19:15:21.532Z,101959.50
2022-12-05T19:20:50.234Z,101964.06
2022-12-05T19:26:12.066Z,101962.91
2022-12-05T19:31:36.036Z,101966.66
2022-12-05T19:36:57.705Z,101964.63
2022-12-05T19:42:19.376Z,101969.22
2022-12-05T19:47:41.077Z,101969.91
2022-12-05T19:53:02.778Z,101973.69
2022-12-05T19:58:24.631Z,101975.72
2022-12-05T20:03:58.496Z,101978.16
2022-12-05T20:09:21.978Z,101979.78
2022-12-05T20:14:43.716Z,101969.63
2022-12-05T20:20:06.086Z,101972.34
2022-12-05T20:25:27.837Z,101971.72
2022-12-05T20:30:49.678Z,101981.38
2022-12-05T20:36:17.037Z,101966.50
2022-12-05T20:41:38.784Z,101968.69
2022-12-05T20:47:00.441Z,101968.44
2022-12-05T20:52:22.092Z,101964.53
2022-12-05T20:57:43.749Z,101966.91
2022-12-05T21:03:05.498Z,101964.41
2022-12-05T21:08:27.643Z,101964.41
2022-12-05T21:13:49.628Z,101953.88
2022-12-05T21:19:11.723Z,101956.56
2022-12-05T21:24:33.457Z,101956.53
2022-12-05T21:29:55.952Z,101956.06
2022-12-05T21:35:17.743Z,101957.56
2022-12-05T21:40:42.747Z,101960.69
2022-12-05T21:46:05.910Z,101967.25
2022-12-05T21:51:27.702Z,101965.22
2022-12-05T21:56:49.421Z,101961.88
2022-12-05T22:02:11.315Z,101965.41
2022-12-05T22:07:33.037Z,101967.22
2022-12-05T22:12:54.732Z,101972.69
2022-12-05T22:18:16.478Z,101969.78
2022-12-05T22:23:38.251Z,101979.41
2022-12-05T22:28:59.922Z,101987.16
2022-12-05T22:34:21.622Z,101991.28
2022-12-05T22:39:43.258Z,101994.28
2022-12-05T22:45:05.385Z,101984.94
2022-12-05T22:50:27.070Z,101989.69
2022-12-05T22:55:49.279Z,101986.09
2022-12-05T23:01:16.861Z,101986.13
2022-12-05T23:06:39.195Z,101987.44
2022-12-05T23:12:00.987Z,101983.63
2022-12-05T23:17:22.828Z,101982.59
2022-12-05T23:22:44.660Z,101965.13
2022-12-05T23:28:06.642Z,101958.72
2022-12-05T23:33:29.026Z,101960.69
2022-12-05T23:38:50.809Z,101965.41
2022-12-05T23:44:12.677Z,101973.28
2022-12-05T23:49:34.478Z,101965.63
2022-12-05T23:54:56.297Z,101962.44
